createdAt,value
2023-02-03T00:00:10.741Z,7.37
2023-02-03T00:01:10.782Z,7.44
2023-02-03T00:02:10.788Z,7.41
2023-02-03T00:03:10.739Z,7.44
2023-02-03T00:04:10.713Z,7.32
2023-02-03T00:05:10.708Z,7.51
2023-02-03T00:06:10.726Z,7.32
2023-02-03T00:07:11.165Z,7.32
2023-02-03T00:08:11.693Z,7.36
2023-02-03T00:09:10.655Z,7.41
2023-02-03T00:10:10.675Z,7.37
2023-02-03T00:11:10.648Z,7.47
2023-02-03T00:12:10.633Z,7.42
2023-02-03T00:13:10.678Z,7.44
2023-02-03T00:14:10.601Z,7.44
2023-02-03T00:15:10.615Z,7.51
2023-02-03T00:16:10.603Z,7.44
2023-02-03T00:17:10.573Z,7.45
2023-02-03T00:18:10.602Z,7.47
2023-02-03T00:19:10.643Z,7.55
2023-02-03T00:20:10.615Z,7.45
2023-02-03T00:21:10.550Z,7.44
2023-02-03T00:22:10.535Z,7.47
2023-02-03T00:23:10.557Z,7.62
2023-02-03T00:24:10.516Z,7.63
2023-02-03T00:25:10.578Z,7.66
2023-02-03T00:26:10.549Z,7.74
2023-02-03T00:27:10.498Z,7.70
2023-02-03T00:28:10.545Z,7.69
2023-02-03T00:29:10.514Z,7.67
2023-02-03T00:30:10.537Z,7.74
2023-02-03T00:31:10.577Z,7.67
2023-02-03T00:32:10.657Z,7.73
2023-02-03T00:33:10.613Z,7.76
2023-02-03T00:34:10.508Z,7.79
2023-02-03T00:35:10.439Z,7.74
2023-02-03T00:36:10.485Z,7.73
2023-02-03T00:37:10.534Z,7.82
2023-02-03T00:38:10.429Z,7.74
2023-02-03T00:39:10.422Z,7.82
2023-02-03T00:40:10.423Z,7.84
2023-02-03T00:41:10.426Z,7.82
2023-02-03T00:42:10.411Z,7.79
2023-02-03T00:43:10.507Z,7.81
2023-02-03T00:44:10.429Z,7.82
2023-02-03T00:45:10.429Z,7.76
2023-02-03T00:46:10.429Z,7.77
2023-02-03T00:47:10.376Z,7.85
2023-02-03T00:48:10.357Z,7.69
2023-02-03T00:49:10.392Z,7.67
2023-02-03T00:50:10.348Z,7.81
2023-02-03T00:51:10.370Z,7.71
2023-02-03T00:52:10.336Z,7.73
2023-02-03T00:53:10.326Z,7.79
2023-02-03T00:54:10.336Z,7.76
2023-02-03T00:55:10.357Z,7.81
2023-02-03T00:56:10.300Z,7.81
2023-02-03T00:57:10.300Z,7.73
2023-02-03T00:58:10.322Z,7.79
2023-02-03T00:59:10.295Z,7.79
2023-02-03T01:00:10.287Z,7.88
2023-02-03T01:01:10.439Z,7.81
2023-02-03T01:02:10.354Z,7.82
2023-02-03T01:03:10.265Z,7.84
2023-02-03T01:04:10.273Z,7.84
2023-02-03T01:05:10.238Z,7.74
2023-02-03T01:06:10.238Z,7.85
2023-02-03T01:07:10.774Z,7.84
2023-02-03T01:08:10.223Z,7.89
2023-02-03T01:09:10.222Z,7.82
2023-02-03T01:10:10.223Z,7.85
2023-02-03T01:11:10.205Z,7.89
2023-02-03T01:12:10.186Z,7.82
2023-02-03T01:13:10.257Z,7.88
2023-02-03T01:14:10.176Z,7.88
2023-02-03T01:15:10.202Z,7.77
2023-02-03T01:16:10.197Z,7.84
2023-02-03T01:17:10.150Z,7.82
2023-02-03T01:18:10.166Z,7.82
2023-02-03T01:19:10.182Z,7.74
2023-02-03T01:20:10.165Z,7.84
2023-02-03T01:21:10.144Z,7.84
2023-02-03T01:22:10.097Z,7.89
2023-02-03T01:23:10.121Z,7.91
2023-02-03T01:24:10.117Z,7.85
2023-02-03T01:25:10.149Z,7.88
2023-02-03T01:26:10.084Z,7.85
2023-02-03T01:27:10.078Z,7.86
2023-02-03T01:28:10.128Z,7.92
2023-02-03T01:29:10.062Z,7.88
2023-02-03T01:30:10.052Z,7.92
2023-02-03T01:31:10.238Z,7.95
2023-02-03T01:32:10.063Z,7.92
2023-02-03T01:33:10.070Z,7.91
2023-02-03T01:34:10.056Z,7.84
2023-02-03T01:35:10.041Z,7.92
2023-02-03T01:36:10.037Z,7.85
2023-02-03T01:37:10.089Z,7.94
2023-02-03T01:38:09.996Z,7.95
2023-02-03T01:39:10.042Z,7.85
2023-02-03T01:40:10.024Z,8.02
2023-02-03T01:41:09.998Z,7.92
2023-02-03T01:42:10.067Z,8.04
2023-02-03T01:43:10.032Z,7.99
2023-02-03T01:44:09.983Z,7.95
2023-02-03T01:45:11.901Z,7.88
2023-02-03T01:46:10.004Z,7.92
2023-02-03T01:47:09.946Z,7.84
2023-02-03T01:48:09.949Z,7.84
2023-02-03T01:49:09.961Z,7.85
2023-02-03T01:50:09.936Z,7.77
2023-02-03T01:51:09.922Z,7.81
2023-02-03T01:52:09.905Z,7.81
2023-02-03T01:53:09.885Z,7.76
2023-02-03T01:54:09.910Z,7.74
2023-02-03T01:55:09.933Z,7.73
2023-02-03T01:56:09.889Z,7.73
2023-02-03T01:57:09.850Z,7.69
2023-02-03T01:58:09.857Z,7.58
2023-02-03T01:59:09.868Z,7.67
2023-02-03T02:00:09.859Z,7.62
2023-02-03T02:01:09.876Z,7.54
2023-02-03T02:02:09.846Z,7.62
2023-02-03T02:03:09.831Z,7.58
2023-02-03T02:04:09.811Z,7.57
2023-02-03T02:05:09.802Z,7.60
2023-02-03T02:06:09.798Z,7.66
2023-02-03T02:07:09.857Z,7.58
2023-02-03T02:08:09.804Z,7.60
2023-02-03T02:09:09.772Z,7.52
2023-02-03T02:10:09.766Z,7.52
2023-02-03T02:11:09.776Z,7.60
2023-02-03T02:12:09.769Z,7.52
2023-02-03T02:13:10.104Z,7.60
2023-02-03T02:14:09.739Z,7.62
2023-02-03T02:15:09.773Z,7.63
2023-02-03T02:16:09.786Z,7.70
2023-02-03T02:17:09.737Z,7.69
2023-02-03T02:18:09.719Z,7.62
2023-02-03T02:19:09.780Z,7.70
2023-02-03T02:20:09.714Z,7.74
2023-02-03T02:21:09.717Z,7.67
2023-02-03T02:22:09.691Z,7.73
2023-02-03T02:23:09.667Z,7.70
2023-02-03T02:24:09.681Z,7.77
2023-02-03T02:25:09.711Z,7.69
2023-02-03T02:26:09.659Z,7.70
2023-02-03T02:27:09.638Z,7.70
2023-02-03T02:28:09.760Z,7.76
2023-02-03T02:29:09.617Z,7.62
2023-02-03T02:30:09.632Z,7.58
2023-02-03T02:31:09.728Z,7.70
2023-02-03T02:32:09.600Z,7.63
2023-02-03T02:33:09.596Z,7.74
2023-02-03T02:34:09.606Z,7.63
2023-02-03T02:35:09.598Z,7.73
2023-02-03T02:36:09.629Z,7.73
2023-02-03T02:37:09.649Z,7.74
2023-02-03T02:38:09.577Z,7.63
2023-02-03T02:39:09.554Z,7.70
2023-02-03T02:40:09.568Z,7.73
2023-02-03T02:41:09.542Z,7.71
2023-02-03T02:42:09.526Z,7.74
2023-02-03T02:43:09.580Z,7.77
2023-02-03T02:44:09.539Z,7.77
2023-02-03T02:45:09.708Z,7.77
2023-02-03T02:46:09.584Z,7.82
2023-02-03T02:47:09.506Z,7.84
2023-02-03T02:48:09.492Z,7.79
2023-02-03T02:49:09.566Z,7.99
2023-02-03T02:50:09.537Z,7.88
2023-02-03T02:51:09.490Z,7.89
2023-02-03T02:52:09.518Z,7.91
2023-02-03T02:53:09.545Z,7.94
2023-02-03T02:54:09.454Z,7.91
2023-02-03T02:55:09.533Z,7.94
2023-02-03T02:56:11.540Z,7.96
2023-02-03T02:57:09.466Z,7.92
2023-02-03T02:58:09.432Z,8.02
2023-02-03T02:59:09.442Z,7.94
2023-02-03T03:00:09.437Z,7.99
2023-02-03T03:01:09.504Z,8.12
2023-02-03T03:02:09.399Z,8.00
2023-02-03T03:03:09.455Z,8.00
2023-02-03T03:04:09.387Z,8.04
2023-02-03T03:05:09.455Z,8.03
2023-02-03T03:06:09.377Z,8.02
2023-02-03T03:07:09.408Z,7.96
2023-02-03T03:08:09.374Z,7.94
2023-02-03T03:09:09.364Z,7.82
2023-02-03T03:10:09.344Z,7.88
2023-02-03T03:11:09.343Z,7.82
2023-02-03T03:12:09.338Z,7.82
2023-02-03T03:13:09.758Z,7.73
2023-02-03T03:14:09.305Z,7.67
2023-02-03T03:15:09.337Z,7.70
2023-02-03T03:16:09.373Z,7.66
2023-02-03T03:17:09.282Z,7.58
2023-02-03T03:18:09.311Z,7.52
2023-02-03T03:19:09.314Z,7.42
2023-02-03T03:20:09.257Z,7.34
2023-02-03T03:21:09.264Z,7.42
2023-02-03T03:22:09.278Z,7.39
2023-02-03T03:23:09.277Z,7.44
2023-02-03T03:24:09.259Z,7.37
2023-02-03T03:25:09.299Z,7.39
2023-02-03T03:26:09.216Z,7.29
2023-02-03T03:27:09.251Z,7.30
2023-02-03T03:28:09.282Z,7.21
2023-02-03T03:29:09.212Z,7.21
2023-02-03T03:30:09.312Z,7.11
2023-02-03T03:31:09.343Z,7.15
2023-02-03T03:32:09.197Z,7.15
2023-02-03T03:33:09.189Z,7.12
2023-02-03T03:34:09.179Z,7.09
2023-02-03T03:35:09.192Z,7.09
2023-02-03T03:36:09.178Z,7.08
2023-02-03T03:37:09.201Z,7.14
2023-02-03T03:38:09.158Z,7.01
2023-02-03T03:39:09.155Z,7.09
2023-02-03T03:40:09.116Z,7.08
2023-02-03T03:41:09.117Z,7.07
2023-02-03T03:42:09.089Z,7.01
2023-02-03T03:43:09.239Z,7.14
2023-02-03T03:44:09.119Z,7.08
2023-02-03T03:45:09.094Z,7.01
2023-02-03T03:46:09.087Z,7.15
2023-02-03T03:47:09.087Z,7.08
2023-02-03T03:48:09.073Z,7.09
2023-02-03T03:49:09.136Z,7.16
2023-02-03T03:50:09.067Z,7.12
2023-02-03T03:51:09.060Z,7.14
2023-02-03T03:52:09.044Z,7.18
2023-02-03T03:53:09.054Z,7.16
2023-02-03T03:54:09.063Z,7.29
2023-02-03T03:55:09.061Z,7.16
2023-02-03T03:56:09.022Z,7.33
2023-02-03T03:57:09.016Z,7.30
2023-02-03T03:58:09.006Z,7.29
2023-02-03T03:59:08.979Z,7.37
2023-02-03T04:00:08.988Z,7.26
2023-02-03T04:01:09.056Z,7.23
2023-02-03T04:02:09.090Z,7.24
2023-02-03T04:03:09.055Z,7.30
2023-02-03T04:04:08.947Z,7.32
2023-02-03T04:05:08.956Z,7.26
2023-02-03T04:06:08.964Z,7.37
2023-02-03T04:07:08.990Z,7.34
2023-02-03T04:08:08.918Z,7.33
2023-02-03T04:09:08.925Z,7.23
2023-02-03T04:10:08.893Z,7.23
2023-02-03T04:11:08.897Z,7.21
2023-02-03T04:12:08.901Z,7.15
2023-02-03T04:13:08.924Z,7.29
2023-02-03T04:14:08.889Z,7.21
2023-02-03T04:15:08.866Z,7.21
2023-02-03T04:16:08.922Z,7.19
2023-02-03T04:17:08.864Z,7.19
2023-02-03T04:18:08.858Z,7.16
2023-02-03T04:19:09.193Z,7.23
2023-02-03T04:20:08.832Z,7.30
2023-02-03T04:21:08.831Z,7.26
2023-02-03T04:22:08.852Z,7.30
2023-02-03T04:23:08.815Z,7.27
2023-02-03T04:24:08.822Z,7.32
2023-02-03T04:25:08.876Z,7.29
2023-02-03T04:26:08.775Z,7.41
2023-02-03T04:27:08.787Z,7.29
2023-02-03T04:28:08.832Z,7.41
2023-02-03T04:29:08.774Z,7.33
2023-02-03T04:30:08.760Z,7.45
2023-02-03T04:31:08.933Z,7.45
2023-02-03T04:32:08.789Z,7.36
2023-02-03T04:33:08.734Z,7.39
2023-02-03T04:34:08.717Z,7.39
2023-02-03T04:35:08.711Z,7.47
2023-02-03T04:36:08.706Z,7.47
2023-02-03T04:37:08.745Z,7.36
2023-02-03T04:38:08.691Z,7.36
2023-02-03T04:39:08.692Z,7.39
2023-02-03T04:40:08.682Z,7.45
2023-02-03T04:41:08.689Z,7.36
2023-02-03T04:42:08.663Z,7.36
2023-02-03T04:43:08.744Z,7.41
2023-02-03T04:44:08.640Z,7.42
2023-02-03T04:45:08.650Z,7.45
2023-02-03T04:46:08.684Z,7.52
2023-02-03T04:47:08.621Z,7.60
2023-02-03T04:48:08.648Z,7.58
2023-02-03T04:49:08.673Z,7.62
2023-02-03T04:50:08.625Z,7.70
2023-02-03T04:51:08.596Z,7.73
2023-02-03T04:52:08.596Z,7.73
2023-02-03T04:53:08.605Z,7.79
2023-02-03T04:54:08.575Z,7.79
2023-02-03T04:55:08.644Z,7.79
2023-02-03T04:56:08.549Z,8.00
2023-02-03T04:57:08.543Z,7.96
2023-02-03T04:58:08.564Z,7.96
2023-02-03T04:59:08.521Z,8.03
2023-02-03T05:00:08.548Z,7.91
2023-02-03T05:01:08.620Z,7.99
2023-02-03T05:02:08.552Z,7.94
2023-02-03T05:03:08.582Z,7.91
2023-02-03T05:04:08.503Z,8.00
2023-02-03T05:05:08.525Z,7.99
2023-02-03T05:06:08.496Z,7.91
2023-02-03T05:07:08.513Z,7.99
2023-02-03T05:08:08.494Z,7.95
2023-02-03T05:09:08.463Z,7.94
2023-02-03T05:10:08.470Z,8.10
2023-02-03T05:11:08.471Z,8.06
2023-02-03T05:12:08.456Z,8.02
2023-02-03T05:13:08.506Z,8.12
2023-02-03T05:14:08.417Z,7.94
2023-02-03T05:15:08.422Z,8.10
2023-02-03T05:16:08.469Z,8.03
2023-02-03T05:17:08.410Z,8.04
2023-02-03T05:18:08.403Z,8.04
2023-02-03T05:19:08.926Z,8.07
2023-02-03T05:20:08.386Z,7.96
2023-02-03T05:21:08.365Z,8.09
2023-02-03T05:22:08.373Z,8.07
2023-02-03T05:23:08.406Z,8.10
2023-02-03T05:24:08.361Z,8.09
2023-02-03T05:25:08.412Z,7.96
2023-02-03T05:26:08.356Z,8.07
2023-02-03T05:27:08.368Z,8.07
2023-02-03T05:28:08.407Z,8.06
2023-02-03T05:29:08.324Z,8.04
2023-02-03T05:30:08.286Z,8.12
2023-02-03T05:31:08.383Z,8.00
2023-02-03T05:32:08.383Z,8.02
2023-02-03T05:33:08.300Z,7.99
2023-02-03T05:34:08.297Z,8.09
2023-02-03T05:35:08.259Z,7.96
2023-02-03T05:36:08.262Z,8.07
2023-02-03T05:37:08.306Z,8.13
2023-02-03T05:38:08.271Z,8.04
2023-02-03T05:39:08.234Z,8.06
2023-02-03T05:40:08.211Z,8.02
2023-02-03T05:41:08.221Z,8.13
2023-02-03T05:42:08.223Z,8.12
2023-02-03T05:43:08.270Z,8.14
2023-02-03T05:44:08.222Z,8.03
2023-02-03T05:45:08.230Z,8.00
2023-02-03T05:46:08.301Z,8.06
2023-02-03T05:47:08.187Z,8.10
2023-02-03T05:48:08.187Z,8.10
2023-02-03T05:49:08.198Z,7.96
2023-02-03T05:50:08.223Z,8.12
2023-02-03T05:51:08.154Z,8.09
2023-02-03T05:52:08.142Z,8.13
2023-02-03T05:53:08.158Z,8.09
2023-02-03T05:54:08.137Z,8.12
2023-02-03T05:55:08.173Z,8.09
2023-02-03T05:56:08.113Z,8.13
2023-02-03T05:57:08.112Z,8.24
2023-02-03T05:58:08.125Z,8.18
2023-02-03T05:59:08.104Z,8.21
2023-02-03T06:00:08.093Z,8.25
2023-02-03T06:01:08.102Z,8.18
2023-02-03T06:02:08.085Z,8.14
2023-02-03T06:03:08.090Z,8.21
2023-02-03T06:04:08.166Z,8.17
2023-02-03T06:05:08.047Z,8.21
2023-02-03T06:06:08.056Z,8.29
2023-02-03T06:07:08.085Z,8.22
2023-02-03T06:08:08.047Z,8.31
2023-02-03T06:09:08.021Z,8.20
2023-02-03T06:10:08.020Z,8.28
2023-02-03T06:11:07.994Z,8.25
2023-02-03T06:12:08.006Z,8.28
2023-02-03T06:13:08.070Z,8.22
2023-02-03T06:14:08.031Z,8.24
2023-02-03T06:15:07.979Z,8.20
2023-02-03T06:16:07.956Z,8.21
2023-02-03T06:17:07.932Z,8.22
2023-02-03T06:18:07.964Z,8.25
2023-02-03T06:19:08.014Z,8.24
2023-02-03T06:20:07.917Z,8.28
2023-02-03T06:21:07.934Z,8.32
2023-02-03T06:22:09.005Z,8.32
2023-02-03T06:23:07.939Z,8.27
2023-02-03T06:24:07.913Z,8.32
2023-02-03T06:25:08.442Z,8.29
2023-02-03T06:26:07.867Z,8.42
2023-02-03T06:27:07.896Z,8.37
2023-02-03T06:28:09.480Z,8.37
2023-02-03T06:29:07.855Z,8.42
2023-02-03T06:30:07.851Z,8.39
2023-02-03T06:31:08.040Z,8.49
2023-02-03T06:32:07.862Z,8.58
2023-02-03T06:33:07.848Z,8.46
2023-02-03T06:34:07.835Z,8.57
2023-02-03T06:35:07.850Z,8.40
2023-02-03T06:36:07.821Z,8.50
2023-02-03T06:37:07.867Z,8.46
2023-02-03T06:38:07.798Z,8.49
2023-02-03T06:39:07.796Z,8.47
2023-02-03T06:40:07.792Z,8.47
2023-02-03T06:41:07.818Z,8.45
2023-02-03T06:42:07.766Z,8.49
2023-02-03T06:43:07.826Z,8.37
2023-02-03T06:44:07.779Z,8.46
2023-02-03T06:45:07.749Z,8.46
2023-02-03T06:46:07.774Z,8.46
2023-02-03T06:47:07.739Z,8.39
2023-02-03T06:48:07.750Z,8.46
2023-02-03T06:49:07.783Z,8.43
2023-02-03T06:50:07.690Z,8.52
2023-02-03T06:51:07.681Z,8.54
2023-02-03T06:52:07.693Z,8.52
2023-02-03T06:53:07.684Z,8.50
2023-02-03T06:54:07.652Z,8.47
2023-02-03T06:55:07.727Z,8.42
2023-02-03T06:56:07.647Z,8.54
2023-02-03T06:57:07.676Z,8.50
2023-02-03T06:58:07.652Z,8.50
2023-02-03T06:59:07.652Z,8.52
2023-02-03T07:00:07.656Z,8.60
2023-02-03T07:01:07.714Z,8.52
2023-02-03T07:02:07.622Z,8.54
2023-02-03T07:03:07.619Z,8.64
2023-02-03T07:04:07.608Z,8.58
2023-02-03T07:05:07.600Z,8.58
2023-02-03T07:06:07.589Z,8.55
2023-02-03T07:07:07.636Z,8.57
2023-02-03T07:08:07.571Z,8.58
2023-02-03T07:09:07.574Z,8.58
2023-02-03T07:10:07.545Z,8.61
2023-02-03T07:11:07.560Z,8.58
2023-02-03T07:12:07.539Z,8.68
2023-02-03T07:13:07.623Z,8.73
2023-02-03T07:14:07.534Z,8.63
2023-02-03T07:15:07.539Z,8.58
2023-02-03T07:16:07.585Z,8.61
2023-02-03T07:17:07.540Z,8.64
2023-02-03T07:18:07.512Z,8.58
2023-02-03T07:19:07.572Z,8.57
2023-02-03T07:20:07.495Z,8.60
2023-02-03T07:21:07.496Z,8.58
2023-02-03T07:22:07.499Z,8.57
2023-02-03T07:23:07.480Z,8.52
2023-02-03T07:24:07.486Z,8.42
2023-02-03T07:25:07.517Z,8.54
2023-02-03T07:26:07.457Z,8.54
2023-02-03T07:27:07.429Z,8.54
2023-02-03T07:28:07.483Z,8.54
2023-02-03T07:29:07.437Z,8.45
2023-02-03T07:30:07.432Z,8.49
2023-02-03T07:31:07.834Z,8.43
2023-02-03T07:32:07.523Z,8.40
2023-02-03T07:33:07.392Z,8.42
2023-02-03T07:34:07.418Z,8.49
2023-02-03T07:35:07.383Z,8.39
2023-02-03T07:36:07.395Z,8.37
2023-02-03T07:37:07.418Z,8.42
2023-02-03T07:38:07.363Z,8.36
2023-02-03T07:39:07.376Z,8.36
2023-02-03T07:40:07.338Z,8.32
2023-02-03T07:41:07.375Z,8.25
2023-02-03T07:42:07.355Z,8.27
2023-02-03T07:43:07.379Z,8.20
2023-02-03T07:44:07.365Z,8.27
2023-02-03T07:45:07.313Z,8.24
2023-02-03T07:46:07.382Z,8.29
2023-02-03T07:47:07.305Z,8.25
2023-02-03T07:48:07.296Z,8.20
2023-02-03T07:49:07.328Z,8.24
2023-02-03T07:50:07.320Z,8.21
2023-02-03T07:51:07.258Z,8.22
2023-02-03T07:52:07.254Z,8.21
2023-02-03T07:53:07.269Z,8.18
2023-02-03T07:54:07.244Z,8.20
2023-02-03T07:55:07.302Z,8.20
2023-02-03T07:56:07.217Z,8.21
2023-02-03T07:57:07.220Z,8.24
2023-02-03T07:58:07.224Z,8.24
2023-02-03T07:59:07.224Z,8.14
2023-02-03T08:00:07.186Z,8.20
2023-02-03T08:01:07.218Z,8.20
2023-02-03T08:02:07.185Z,8.27
2023-02-03T08:03:07.187Z,8.22
2023-02-03T08:04:07.163Z,8.32
2023-02-03T08:05:07.170Z,8.29
2023-02-03T08:06:07.156Z,8.32
2023-02-03T08:07:07.274Z,8.29
2023-02-03T08:08:07.118Z,8.31
2023-02-03T08:09:07.121Z,8.29
2023-02-03T08:10:07.100Z,8.25
2023-02-03T08:11:07.117Z,8.21
2023-02-03T08:12:07.116Z,8.27
2023-02-03T08:13:07.154Z,8.31
2023-02-03T08:14:07.098Z,8.24
2023-02-03T08:15:07.096Z,8.34
2023-02-03T08:16:07.089Z,8.32
2023-02-03T08:17:07.139Z,8.39
2023-02-03T08:18:07.059Z,8.34
2023-02-03T08:19:07.121Z,8.36
2023-02-03T08:20:07.055Z,8.39
2023-02-03T08:21:07.052Z,8.37
2023-02-03T08:22:07.048Z,8.32
2023-02-03T08:23:07.036Z,8.34
2023-02-03T08:24:07.024Z,8.36
2023-02-03T08:25:07.045Z,8.40
2023-02-03T08:26:06.990Z,8.37
2023-02-03T08:27:06.997Z,8.43
2023-02-03T08:28:07.057Z,8.40
2023-02-03T08:29:06.978Z,8.49
2023-02-03T08:30:06.986Z,8.47
2023-02-03T08:31:07.110Z,8.45
2023-02-03T08:32:07.011Z,8.57
2023-02-03T08:33:06.933Z,8.64
2023-02-03T08:34:06.942Z,8.67
2023-02-03T08:35:06.950Z,8.61
2023-02-03T08:36:06.938Z,8.63
2023-02-03T08:37:07.265Z,8.64
2023-02-03T08:38:07.003Z,8.64
2023-02-03T08:39:06.906Z,8.68
2023-02-03T08:40:06.950Z,8.70
2023-02-03T08:41:06.889Z,8.73
2023-02-03T08:42:06.884Z,8.65
2023-02-03T08:43:06.997Z,8.71
2023-02-03T08:44:06.858Z,8.76
2023-02-03T08:45:06.863Z,8.67
2023-02-03T08:46:06.957Z,8.73
2023-02-03T08:47:06.829Z,8.78
2023-02-03T08:48:06.849Z,8.80
2023-02-03T08:49:06.879Z,8.83
2023-02-03T08:50:06.872Z,8.82
2023-02-03T08:51:06.835Z,8.91
2023-02-03T08:52:06.886Z,8.82
2023-02-03T08:53:06.797Z,8.85
2023-02-03T08:54:06.818Z,8.89
2023-02-03T08:55:06.834Z,8.91
2023-02-03T08:56:06.803Z,8.85
2023-02-03T08:57:06.803Z,8.91
2023-02-03T08:58:06.794Z,8.89
2023-02-03T08:59:06.777Z,8.93
2023-02-03T09:00:06.774Z,8.80
2023-02-03T09:01:06.853Z,8.94
2023-02-03T09:02:06.791Z,8.89
2023-02-03T09:03:06.768Z,8.94
2023-02-03T09:04:06.734Z,8.86
2023-02-03T09:05:06.782Z,8.86
2023-02-03T09:06:06.707Z,8.86
2023-02-03T09:07:06.765Z,8.88
2023-02-03T09:08:06.692Z,8.82
2023-02-03T09:09:06.728Z,8.76
2023-02-03T09:10:06.773Z,8.83
2023-02-03T09:11:06.665Z,8.79
2023-02-03T09:12:06.661Z,8.82
2023-02-03T09:13:06.702Z,8.71
2023-02-03T09:14:07.450Z,8.75
2023-02-03T09:15:06.668Z,8.73
2023-02-03T09:16:06.692Z,8.61
2023-02-03T09:17:06.632Z,8.70
2023-02-03T09:18:06.608Z,8.70
2023-02-03T09:19:06.680Z,8.73
2023-02-03T09:20:06.668Z,8.76
2023-02-03T09:21:06.600Z,8.75
2023-02-03T09:22:06.582Z,8.79
2023-02-03T09:23:06.610Z,8.75
2023-02-03T09:24:06.579Z,8.78
2023-02-03T09:25:06.632Z,8.78
2023-02-03T09:26:06.592Z,8.78
2023-02-03T09:27:06.564Z,8.79
2023-02-03T09:28:06.599Z,8.73
2023-02-03T09:29:06.528Z,8.75
2023-02-03T09:30:06.529Z,8.73
2023-02-03T09:31:06.637Z,8.76
2023-02-03T09:32:06.569Z,8.85
2023-02-03T09:33:06.510Z,8.78
2023-02-03T09:34:06.566Z,8.79
2023-02-03T09:35:06.490Z,8.76
2023-02-03T09:36:06.495Z,8.78
2023-02-03T09:37:06.924Z,8.78
2023-02-03T09:38:06.481Z,8.78
2023-02-03T09:39:06.489Z,8.75
2023-02-03T09:40:06.470Z,8.65
2023-02-03T09:41:11.532Z,8.63
2023-02-03T09:42:07.475Z,8.61
2023-02-03T09:43:06.595Z,8.65
2023-02-03T09:44:06.439Z,8.64
2023-02-03T09:45:06.435Z,8.63
2023-02-03T09:46:06.468Z,8.61
2023-02-03T09:47:08.226Z,8.64
2023-02-03T09:48:06.497Z,8.67
2023-02-03T09:49:06.483Z,8.70
2023-02-03T09:50:06.508Z,8.58
2023-02-03T09:51:06.401Z,8.67
2023-02-03T09:52:06.385Z,8.68
2023-02-03T09:53:06.444Z,8.76
2023-02-03T09:54:06.452Z,8.68
2023-02-03T09:55:06.448Z,8.68
2023-02-03T09:56:06.329Z,8.63
2023-02-03T09:57:07.711Z,8.75
2023-02-03T09:58:06.347Z,8.79
2023-02-03T09:59:06.356Z,8.70
2023-02-03T10:00:06.301Z,8.68
2023-02-03T10:01:06.461Z,8.78
2023-02-03T10:02:06.335Z,8.76
2023-02-03T10:03:06.283Z,8.80
2023-02-03T10:04:06.289Z,8.80
2023-02-03T10:05:06.337Z,8.80
2023-02-03T10:06:06.297Z,8.88
2023-02-03T10:07:06.389Z,8.82
2023-02-03T10:08:06.254Z,8.89
2023-02-03T10:09:06.274Z,8.88
2023-02-03T10:10:06.227Z,8.85
2023-02-03T10:11:06.220Z,8.80
2023-02-03T10:12:06.218Z,8.91
2023-02-03T10:13:06.383Z,8.83
2023-02-03T10:14:06.223Z,8.88
2023-02-03T10:15:06.262Z,8.88
2023-02-03T10:16:06.266Z,8.86
2023-02-03T10:17:06.306Z,8.89
2023-02-03T10:18:06.190Z,8.88
2023-02-03T10:19:06.259Z,8.88
2023-02-03T10:20:06.240Z,8.96
2023-02-03T10:21:06.165Z,8.93
2023-02-03T10:22:06.175Z,8.98
2023-02-03T10:23:06.148Z,9.00
2023-02-03T10:24:06.131Z,9.01
2023-02-03T10:25:06.169Z,9.00
2023-02-03T10:26:06.154Z,9.08
2023-02-03T10:27:06.210Z,9.16
2023-02-03T10:28:06.147Z,9.13
2023-02-03T10:29:06.105Z,9.17
2023-02-03T10:30:06.105Z,9.10
2023-02-03T10:31:06.247Z,9.08
2023-02-03T10:32:06.301Z,9.20
2023-02-03T10:33:06.054Z,9.13
2023-02-03T10:34:06.058Z,9.12
2023-02-03T10:35:06.057Z,9.04
2023-02-03T10:36:06.042Z,9.01
2023-02-03T10:37:06.289Z,9.13
2023-02-03T10:38:06.048Z,9.08
2023-02-03T10:39:06.043Z,9.10
2023-02-03T10:40:06.019Z,9.13
2023-02-03T10:41:06.071Z,9.15
2023-02-03T10:42:06.036Z,9.15
2023-02-03T10:43:06.110Z,9.16
2023-02-03T10:44:05.983Z,9.08
2023-02-03T10:45:06.060Z,9.19
2023-02-03T10:46:06.019Z,9.10
2023-02-03T10:47:05.985Z,9.10
2023-02-03T10:48:05.988Z,9.17
2023-02-03T10:49:06.108Z,9.17
2023-02-03T10:50:05.943Z,9.16
2023-02-03T10:51:06.042Z,9.19
2023-02-03T10:52:06.001Z,9.20
2023-02-03T10:53:05.935Z,9.17
2023-02-03T10:54:05.930Z,9.26
2023-02-03T10:55:06.073Z,9.27
2023-02-03T10:56:05.962Z,9.15
2023-02-03T10:57:05.918Z,9.19
2023-02-03T10:58:05.897Z,9.10
2023-02-03T10:59:05.883Z,9.15
2023-02-03T11:00:05.896Z,9.12
2023-02-03T11:01:06.147Z,9.19
2023-02-03T11:02:05.862Z,9.22
2023-02-03T11:03:05.936Z,9.01
2023-02-03T11:04:06.853Z,9.13
2023-02-03T11:05:05.842Z,9.06
2023-02-03T11:06:05.889Z,9.17
2023-02-03T11:07:05.897Z,9.04
2023-02-03T11:08:05.816Z,9.12
2023-02-03T11:09:05.912Z,9.06
2023-02-03T11:10:05.807Z,9.06
2023-02-03T11:11:05.808Z,9.08
2023-02-03T11:12:05.840Z,9.15
2023-02-03T11:13:05.848Z,9.00
2023-02-03T11:14:05.768Z,8.97
2023-02-03T11:15:05.758Z,9.04
2023-02-03T11:16:05.793Z,9.04
2023-02-03T11:17:05.747Z,9.03
2023-02-03T11:18:05.746Z,9.04
2023-02-03T11:19:05.807Z,9.00
2023-02-03T11:20:05.720Z,9.10
2023-02-03T11:21:05.731Z,9.04
2023-02-03T11:22:05.737Z,9.00
2023-02-03T11:23:05.722Z,9.04
2023-02-03T11:24:05.761Z,9.03
2023-02-03T11:25:05.858Z,9.03
2023-02-03T11:26:05.763Z,9.04
2023-02-03T11:27:05.693Z,9.10
2023-02-03T11:28:05.716Z,9.04
2023-02-03T11:29:05.674Z,9.12
2023-02-03T11:30:05.668Z,9.13
2023-02-03T11:31:05.800Z,9.10
2023-02-03T11:32:05.756Z,9.15
2023-02-03T11:33:05.616Z,9.12
2023-02-03T11:34:05.629Z,9.13
2023-02-03T11:35:05.637Z,9.10
2023-02-03T11:36:05.641Z,9.23
2023-02-03T11:37:05.695Z,9.12
2023-02-03T11:38:05.585Z,9.15
2023-02-03T11:39:05.585Z,9.16
2023-02-03T11:40:05.638Z,9.17
2023-02-03T11:41:05.631Z,9.12
2023-02-03T11:42:05.560Z,9.15
2023-02-03T11:43:06.001Z,9.22
2023-02-03T11:44:05.569Z,9.20
2023-02-03T11:45:05.584Z,9.16
2023-02-03T11:46:05.631Z,9.16
2023-02-03T11:47:05.529Z,9.08
2023-02-03T11:48:05.526Z,9.17
2023-02-03T11:49:05.608Z,9.17
2023-02-03T11:50:05.513Z,9.19
2023-02-03T11:51:05.555Z,9.23
2023-02-03T11:52:05.529Z,9.19
2023-02-03T11:53:05.491Z,9.17
2023-02-03T11:54:05.479Z,9.13
2023-02-03T11:55:06.678Z,9.10
2023-02-03T11:56:05.467Z,9.23
2023-02-03T11:57:05.461Z,9.22
2023-02-03T11:58:05.503Z,9.20
2023-02-03T11:59:05.414Z,9.34
2023-02-03T12:00:05.467Z,9.20
2023-02-03T12:01:05.534Z,9.23
2023-02-03T12:02:05.472Z,9.26
2023-02-03T12:03:05.489Z,9.27
2023-02-03T12:04:05.460Z,9.24
2023-02-03T12:05:05.390Z,9.26
2023-02-03T12:06:05.399Z,9.27
2023-02-03T12:07:05.453Z,9.19
2023-02-03T12:08:05.378Z,9.35
2023-02-03T12:09:05.353Z,9.38
2023-02-03T12:10:05.367Z,9.31
2023-02-03T12:11:05.360Z,9.27
2023-02-03T12:12:05.344Z,9.30
2023-02-03T12:13:05.369Z,9.26
2023-02-03T12:14:05.356Z,9.26
2023-02-03T12:15:05.311Z,9.27
2023-02-03T12:16:05.461Z,9.20
2023-02-03T12:17:05.294Z,9.30
2023-02-03T12:18:05.299Z,9.19
2023-02-03T12:19:05.429Z,9.23
2023-02-03T12:20:05.296Z,9.24
2023-02-03T12:21:05.247Z,9.19
2023-02-03T12:22:05.267Z,9.20
2023-02-03T12:23:05.261Z,9.19
2023-02-03T12:24:05.293Z,9.22
2023-02-03T12:25:05.322Z,9.17
2023-02-03T12:26:05.248Z,9.13
2023-02-03T12:27:05.245Z,9.20
2023-02-03T12:28:05.264Z,9.17
2023-02-03T12:29:05.251Z,9.16
2023-02-03T12:30:05.240Z,9.16
2023-02-03T12:31:05.347Z,9.23
2023-02-03T12:32:05.202Z,9.16
2023-02-03T12:33:05.218Z,9.20
2023-02-03T12:34:05.179Z,9.23
2023-02-03T12:35:05.224Z,9.31
2023-02-03T12:36:05.188Z,9.20
2023-02-03T12:37:05.217Z,9.30
2023-02-03T12:38:05.164Z,9.34
2023-02-03T12:39:05.172Z,9.30
2023-02-03T12:40:05.171Z,9.27
2023-02-03T12:41:05.150Z,9.32
2023-02-03T12:42:05.105Z,9.34
2023-02-03T12:43:05.171Z,9.22
2023-02-03T12:44:05.136Z,9.30
2023-02-03T12:45:05.125Z,9.22
2023-02-03T12:46:05.126Z,9.20
2023-02-03T12:47:05.098Z,9.22
2023-02-03T12:48:05.069Z,9.26
2023-02-03T12:49:05.499Z,9.23
2023-02-03T12:50:05.120Z,9.34
2023-02-03T12:51:05.063Z,9.38
2023-02-03T12:52:05.049Z,9.37
2023-02-03T12:53:05.060Z,9.31
2023-02-03T12:54:05.089Z,9.35
2023-02-03T12:55:05.094Z,9.42
2023-02-03T12:56:05.060Z,9.48
2023-02-03T12:57:05.007Z,9.45
2023-02-03T12:58:05.008Z,9.45
2023-02-03T12:59:05.017Z,9.55
2023-02-03T13:00:04.992Z,9.48
2023-02-03T13:01:05.570Z,9.50
2023-02-03T13:02:04.990Z,9.45
2023-02-03T13:03:04.962Z,9.55
2023-02-03T13:04:05.079Z,9.53
2023-02-03T13:05:04.938Z,9.58
2023-02-03T13:06:04.956Z,9.52
2023-02-03T13:07:04.968Z,9.52
2023-02-03T13:08:04.944Z,9.55
2023-02-03T13:09:04.931Z,9.53
2023-02-03T13:10:04.905Z,9.56
2023-02-03T13:11:04.913Z,9.49
2023-02-03T13:12:04.907Z,9.48
2023-02-03T13:13:04.960Z,9.55
2023-02-03T13:14:04.891Z,9.48
2023-02-03T13:15:04.929Z,9.50
2023-02-03T13:16:04.917Z,9.44
2023-02-03T13:17:04.875Z,9.52
2023-02-03T13:18:04.868Z,9.50